sensor_id;sensor_type;location;lat;lon;timestamp;pressure;altitude;pressure_sealevel;temperature;humidity
75543;BME280;64129;53.508;10.476;2023-04-15T00:02:21;100459.81;;;7.59;87.11
75543;BME280;64129;53.508;10.476;2023-04-15T00:04:47;100463.47;;;7.50;87.46
75543;BME280;64129;53.508;10.476;2023-04-15T00:07:14;100455.63;;;7.46;87.63
75543;BME280;64129;53.508;10.476;2023-04-15T00:09:41;100457.56;;;7.35;88.71
75543;BME280;64129;53.508;10.476;2023-04-15T00:12:08;100460.00;;;7.48;88.08
75543;BME280;64129;53.508;10.476;2023-04-15T00:14:34;100461.59;;;7.57;87.64
75543;BME280;64129;53.508;10.476;2023-04-15T00:17:03;100456.34;;;7.56;87.76
75543;BME280;64129;53.508;10.476;2023-04-15T00:19:30;100464.16;;;7.62;87.45
75543;BME280;64129;53.508;10.476;2023-04-15T00:21:58;100462.56;;;7.53;87.94
75543;BME280;64129;53.508;10.476;2023-04-15T00:24:25;100457.38;;;7.47;87.94
75543;BME280;64129;53.508;10.476;2023-04-15T00:26:51;100459.06;;;7.51;88.71
75543;BME280;64129;53.508;10.476;2023-04-15T00:29:18;100453.94;;;7.42;88.40
75543;BME280;64129;53.508;10.476;2023-04-15T00:31:45;100463.44;;;7.54;87.87
75543;BME280;64129;53.508;10.476;2023-04-15T00:34:12;100459.88;;;7.55;87.92
75543;BME280;64129;53.508;10.476;2023-04-15T00:36:41;100462.38;;;7.65;87.88
75543;BME280;64129;53.508;10.476;2023-04-15T00:39:08;100458.28;;;7.44;88.03
75543;BME280;64129;53.508;10.476;2023-04-15T00:41:34;100460.88;;;7.49;89.01
75543;BME280;64129;53.508;10.476;2023-04-15T00:44:07;100455.34;;;7.64;88.37
75543;BME280;64129;53.508;10.476;2023-04-15T00:46:35;100452.88;;;7.52;88.54
75543;BME280;64129;53.508;10.476;2023-04-15T00:49:04;100452.25;;;7.38;89.04
75543;BME280;64129;53.508;10.476;2023-04-15T00:51:33;100455.22;;;7.15;89.80
75543;BME280;64129;53.508;10.476;2023-04-15T00:54:10;100449.56;;;7.39;89.13
75543;BME280;64129;53.508;10.476;2023-04-15T00:56:38;100444.34;;;7.36;89.05
75543;BME280;64129;53.508;10.476;2023-04-15T00:59:05;100444.16;;;7.47;89.17
75543;BME280;64129;53.508;10.476;2023-04-15T01:01:34;100439.72;;;7.49;89.00
75543;BME280;64129;53.508;10.476;2023-04-15T01:04:01;100433.00;;;7.27;89.65
75543;BME280;64129;53.508;10.476;2023-04-15T01:06:29;100431.22;;;7.30;90.56
75543;BME280;64129;53.508;10.476;2023-04-15T01:08:56;100430.50;;;7.19;90.42
75543;BME280;64129;53.508;10.476;2023-04-15T01:11:23;100429.31;;;7.40;90.17
75543;BME280;64129;53.508;10.476;2023-04-15T01:13:51;100427.72;;;7.30;89.95
75543;BME280;64129;53.508;10.476;2023-04-15T01:16:18;100420.84;;;7.16;90.91
75543;BME280;64129;53.508;10.476;2023-04-15T01:18:45;100419.91;;;7.20;90.49
75543;BME280;64129;53.508;10.476;2023-04-15T01:21:12;100417.31;;;7.17;91.01
75543;BME280;64129;53.508;10.476;2023-04-15T01:23:39;100417.88;;;7.39;90.54
75543;BME280;64129;53.508;10.476;2023-04-15T01:26:06;100416.31;;;7.25;90.81
75543;BME280;64129;53.508;10.476;2023-04-15T01:28:36;100413.34;;;7.46;89.23
75543;BME280;64129;53.508;10.476;2023-04-15T01:31:05;100417.06;;;7.36;90.22
75543;BME280;64129;53.508;10.476;2023-04-15T01:33:35;100419.47;;;7.48;90.39
75543;BME280;64129;53.508;10.476;2023-04-15T01:36:02;100410.69;;;7.47;89.58
75543;BME280;64129;53.508;10.476;2023-04-15T01:38:29;100413.22;;;7.54;90.12
75543;BME280;64129;53.508;10.476;2023-04-15T01:40:56;100399.53;;;7.30;90.56
75543;BME280;64129;53.508;10.476;2023-04-15T01:43:24;100397.81;;;7.26;91.35
75543;BME280;64129;53.508;10.476;2023-04-15T01:45:51;100390.81;;;7.24;91.89
75543;BME280;64129;53.508;10.476;2023-04-15T01:48:18;100386.25;;;7.35;91.34
75543;BME280;64129;53.508;10.476;2023-04-15T01:50:44;100388.00;;;7.36;91.38
75543;BME280;64129;53.508;10.476;2023-04-15T01:53:13;100383.41;;;7.47;90.76
75543;BME280;64129;53.508;10.476;2023-04-15T01:55:39;100384.19;;;7.52;90.59
75543;BME280;64129;53.508;10.476;2023-04-15T01:58:06;100384.88;;;7.65;90.30
75543;BME280;64129;53.508;10.476;2023-04-15T02:00:33;100385.88;;;7.56;90.22
75543;BME280;64129;53.508;10.476;2023-04-15T02:02:59;100389.28;;;7.63;89.89
75543;BME280;64129;53.508;10.476;2023-04-15T02:05:26;100384.25;;;7.49;90.91
75543;BME280;64129;53.508;10.476;2023-04-15T02:07:53;100387.63;;;7.57;90.95
75543;BME280;64129;53.508;10.476;2023-04-15T02:10:19;100378.00;;;7.53;91.30
75543;BME280;64129;53.508;10.476;2023-04-15T02:12:46;100380.84;;;7.41;91.58
75543;BME280;64129;53.508;10.476;2023-04-15T02:15:12;100379.03;;;7.44;91.82
75543;BME280;64129;53.508;10.476;2023-04-15T02:17:40;100378.22;;;7.41;92.03
75543;BME280;64129;53.508;10.476;2023-04-15T02:20:13;100381.75;;;7.40;92.13
75543;BME280;64129;53.508;10.476;2023-04-15T02:22:40;100383.28;;;7.53;91.65
75543;BME280;64129;53.508;10.476;2023-04-15T02:25:07;100379.69;;;7.57;91.53
75543;BME280;64129;53.508;10.476;2023-04-15T02:27:35;100383.13;;;7.62;91.10
75543;BME280;64129;53.508;10.476;2023-04-15T02:30:02;100372.00;;;7.43;91.61
75543;BME280;64129;53.508;10.476;2023-04-15T02:32:28;100380.50;;;7.61;91.37
75543;BME280;64129;53.508;10.476;2023-04-15T02:34:55;100379.44;;;7.72;90.08
75543;BME280;64129;53.508;10.476;2023-04-15T02:37:22;100377.03;;;7.57;91.60
75543;BME280;64129;53.508;10.476;2023-04-15T02:39:48;100387.66;;;7.56;91.72
75543;BME280;64129;53.508;10.476;2023-04-15T02:42:15;100383.13;;;7.62;91.35
75543;BME280;64129;53.508;10.476;2023-04-15T02:44:41;100388.47;;;7.59;91.70
75543;BME280;64129;53.508;10.476;2023-04-15T02:47:09;100392.91;;;7.57;92.21
75543;BME280;64129;53.508;10.476;2023-04-15T02:49:37;100389.09;;;7.75;91.42
75543;BME280;64129;53.508;10.476;2023-04-15T02:52:03;100389.22;;;7.67;90.64
75543;BME280;64129;53.508;10.476;2023-04-15T02:54:31;100391.94;;;7.61;90.79
75543;BME280;64129;53.508;10.476;2023-04-15T02:56:59;100403.63;;;7.48;92.35
75543;BME280;64129;53.508;10.476;2023-04-15T02:59:26;100393.75;;;7.59;91.71
75543;BME280;64129;53.508;10.476;2023-04-15T03:01:53;100394.00;;;7.44;92.34
75543;BME280;64129;53.508;10.476;2023-04-15T03:04:21;100385.81;;;7.59;92.21
75543;BME280;64129;53.508;10.476;2023-04-15T03:06:48;100386.66;;;7.61;91.89
75543;BME280;64129;53.508;10.476;2023-04-15T03:09:15;100381.31;;;7.66;91.13
75543;BME280;64129;53.508;10.476;2023-04-15T03:11:42;100381.34;;;7.64;91.92
75543;BME280;64129;53.508;10.476;2023-04-15T03:14:08;100378.16;;;7.44;92.51
75543;BME280;64129;53.508;10.476;2023-04-15T03:16:39;100371.69;;;7.63;92.29
75543;BME280;64129;53.508;10.476;2023-04-15T03:19:05;100385.75;;;7.62;92.11
75543;BME280;64129;53.508;10.476;2023-04-15T03:21:33;100375.31;;;7.56;92.46
75543;BME280;64129;53.508;10.476;2023-04-15T03:23:59;100369.22;;;7.51;92.99
75543;BME280;64129;53.508;10.476;2023-04-15T03:26:28;100374.53;;;7.49;92.74
75543;BME280;64129;53.508;10.476;2023-04-15T03:28:58;100374.34;;;7.60;92.28
75543;BME280;64129;53.508;10.476;2023-04-15T03:31:24;100371.75;;;7.57;92.90
75543;BME280;64129;53.508;10.476;2023-04-15T03:33:51;100365.47;;;7.66;92.72
75543;BME280;64129;53.508;10.476;2023-04-15T03:36:18;100375.16;;;7.65;92.27
75543;BME280;64129;53.508;10.476;2023-04-15T03:38:44;100376.81;;;7.71;92.09
75543;BME280;64129;53.508;10.476;2023-04-15T03:41:11;100377.75;;;7.68;92.62
75543;BME280;64129;53.508;10.476;2023-04-15T03:43:38;100374.25;;;7.68;92.07
75543;BME280;64129;53.508;10.476;2023-04-15T03:46:04;100383.13;;;7.62;92.25
75543;BME280;64129;53.508;10.476;2023-04-15T03:48:31;100378.66;;;7.67;92.03
75543;BME280;64129;53.508;10.476;2023-04-15T03:50:57;100378.56;;;7.72;91.81
75543;BME280;64129;53.508;10.476;2023-04-15T03:53:24;100377.84;;;7.61;91.84
75543;BME280;64129;53.508;10.476;2023-04-15T03:55:50;100381.28;;;7.67;92.34
75543;BME280;64129;53.508;10.476;2023-04-15T03:58:17;100373.50;;;7.58;92.53
75543;BME280;64129;53.508;10.476;2023-04-15T04:00:44;100376.06;;;7.64;92.54
75543;BME280;64129;53.508;10.476;2023-04-15T04:03:10;100372.81;;;7.47;92.96
75543;BME280;64129;53.508;10.476;2023-04-15T04:05:37;100362.72;;;7.72;92.29
75543;BME280;64129;53.508;10.476;2023-04-15T04:08:04;100367.19;;;7.68;91.79
75543;BME280;64129;53.508;10.476;2023-04-15T04:10:31;100367.06;;;7.74;91.41
75543;BME280;64129;53.508;10.476;2023-04-15T04:12:57;100369.81;;;7.68;92.41
75543;BME280;64129;53.508;10.476;2023-04-15T04:15:24;100370.72;;;7.67;92.35
75543;BME280;64129;53.508;10.476;2023-04-15T04:17:50;100376.91;;;7.66;92.69
75543;BME280;64129;53.508;10.476;2023-04-15T04:20:17;100373.03;;;7.86;92.13
75543;BME280;64129;53.508;10.476;2023-04-15T04:22:44;100386.19;;;7.89;91.62
75543;BME280;64129;53.508;10.476;2023-04-15T04:25:10;100381.06;;;7.79;92.23
75543;BME280;64129;53.508;10.476;2023-04-15T04:27:37;100384.38;;;7.91;91.71
75543;BME280;64129;53.508;10.476;2023-04-15T04:30:05;100380.13;;;7.82;91.53
75543;BME280;64129;53.508;10.476;2023-04-15T04:32:32;100376.69;;;7.78;92.37
75543;BME280;64129;53.508;10.476;2023-04-15T04:34:58;100383.72;;;7.79;92.47
75543;BME280;64129;53.508;10.476;2023-04-15T04:37:24;100380.28;;;7.74;92.63
75543;BME280;64129;53.508;10.476;2023-04-15T04:39:51;100385.56;;;7.74;92.44
75543;BME280;64129;53.508;10.476;2023-04-15T04:42:18;100384.56;;;7.81;92.04
75543;BME280;64129;53.508;10.476;2023-04-15T04:44:44;100382.63;;;7.90;92.13
75543;BME280;64129;53.508;10.476;2023-04-15T04:47:11;100387.94;;;7.88;92.07
75543;BME280;64129;53.508;10.476;2023-04-15T04:49:38;100396.97;;;7.76;92.40
75543;BME280;64129;53.508;10.476;2023-04-15T04:52:04;100384.88;;;7.62;93.37
75543;BME280;64129;53.508;10.476;2023-04-15T04:54:32;100386.19;;;7.89;92.84
75543;BME280;64129;53.508;10.476;2023-04-15T04:56:58;100394.16;;;7.86;92.65
75543;BME280;64129;53.508;10.476;2023-04-15T04:59:25;100392.59;;;7.75;92.28
75543;BME280;64129;53.508;10.476;2023-04-15T05:01:51;100389.78;;;7.85;92.34
75543;BME280;64129;53.508;10.476;2023-04-15T05:04:18;100388.09;;;7.80;92.48
75543;BME280;64129;53.508;10.476;2023-04-15T05:06:44;100390.56;;;7.90;92.83
75543;BME280;64129;53.508;10.476;2023-04-15T05:09:11;100390.88;;;7.73;92.84
75543;BME280;64129;53.508;10.476;2023-04-15T05:11:37;100389.16;;;7.70;93.01
75543;BME280;64129;53.508;10.476;2023-04-15T05:14:04;100391.59;;;7.82;93.05
75543;BME280;64129;53.508;10.476;2023-04-15T05:16:30;100386.00;;;7.98;92.20
75543;BME280;64129;53.508;10.476;2023-04-15T05:18:57;100387.78;;;7.99;91.65
75543;BME280;64129;53.508;10.476;2023-04-15T05:21:23;100395.66;;;8.02;91.31
75543;BME280;64129;53.508;10.476;2023-04-15T05:23:49;100385.97;;;8.01;91.04
75543;BME280;64129;53.508;10.476;2023-04-15T05:26:16;100398.34;;;7.97;91.54
75543;BME280;64129;53.508;10.476;2023-04-15T05:28:43;100401.06;;;7.94;92.02
75543;BME280;64129;53.508;10.476;2023-04-15T05:31:09;100397.94;;;7.72;93.09
75543;BME280;64129;53.508;10.476;2023-04-15T05:33:36;100389.84;;;7.81;92.61
75543;BME280;64129;53.508;10.476;2023-04-15T05:36:02;100398.66;;;7.80;92.81
75543;BME280;64129;53.508;10.476;2023-04-15T05:38:29;100395.19;;;7.78;93.11
75543;BME280;64129;53.508;10.476;2023-04-15T05:40:55;100388.56;;;8.04;92.18
75543;BME280;64129;53.508;10.476;2023-04-15T05:43:22;100395.13;;;7.81;92.72
75543;BME280;64129;53.508;10.476;2023-04-15T05:45:49;100391.13;;;8.07;92.51
75543;BME280;64129;53.508;10.476;2023-04-15T05:48:15;100395.81;;;7.91;92.09
75543;BME280;64129;53.508;10.476;2023-04-15T05:50:42;100402.06;;;7.87;92.34
75543;BME280;64129;53.508;10.476;2023-04-15T05:53:09;100402.75;;;7.97;92.41
75543;BME280;64129;53.508;10.476;2023-04-15T05:55:35;100407.22;;;7.95;92.25
75543;BME280;64129;53.508;10.476;2023-04-15T05:58:02;100410.13;;;7.81;92.41
75543;BME280;64129;53.508;10.476;2023-04-15T06:00:29;100417.78;;;7.95;91.82
75543;BME280;64129;53.508;10.476;2023-04-15T06:02:56;100422.22;;;7.93;92.15
75543;BME280;64129;53.508;10.476;2023-04-15T06:05:24;100417.09;;;7.85;92.29
75543;BME280;64129;53.508;10.476;2023-04-15T06:07:50;100419.88;;;7.77;92.58
75543;BME280;64129;53.508;10.476;2023-04-15T06:10:17;100424.78;;;7.99;92.07
75543;BME280;64129;53.508;10.476;2023-04-15T06:12:44;100426.56;;;7.97;91.74
75543;BME280;64129;53.508;10.476;2023-04-15T06:15:11;100425.88;;;7.87;92.39
75543;BME280;64129;53.508;10.476;2023-04-15T06:17:37;100428.56;;;7.84;92.28
75543;BME280;64129;53.508;10.476;2023-04-15T06:20:04;100428.22;;;8.04;91.26
75543;BME280;64129;53.508;10.476;2023-04-15T06:22:31;100445.91;;;8.02;91.37
75543;BME280;64129;53.508;10.476;2023-04-15T06:24:57;100441.75;;;7.86;91.90
75543;BME280;64129;53.508;10.476;2023-04-15T06:27:24;100439.16;;;7.82;91.83
75543;BME280;64129;53.508;10.476;2023-04-15T06:29:50;100444.47;;;7.82;92.37
75543;BME280;64129;53.508;10.476;2023-04-15T06:32:16;100438.25;;;7.85;91.93
75543;BME280;64129;53.508;10.476;2023-04-15T06:34:43;100432.09;;;7.85;91.44
75543;BME280;64129;53.508;10.476;2023-04-15T06:37:09;100440.84;;;7.87;92.05
75543;BME280;64129;53.508;10.476;2023-04-15T06:39:41;100450.72;;;8.26;91.15
75543;BME280;64129;53.508;10.476;2023-04-15T06:42:09;100443.28;;;8.00;91.26
75543;BME280;64129;53.508;10.476;2023-04-15T06:44:36;100444.16;;;8.01;91.71
75543;BME280;64129;53.508;10.476;2023-04-15T06:47:03;100447.47;;;8.12;91.03
75543;BME280;64129;53.508;10.476;2023-04-15T06:49:29;100452.66;;;8.63;88.91
75543;BME280;64129;53.508;10.476;2023-04-15T06:51:56;100461.41;;;8.20;90.05
75543;BME280;64129;53.508;10.476;2023-04-15T06:54:23;100463.94;;;8.26;90.32
75543;BME280;64129;53.508;10.476;2023-04-15T06:56:49;100463.44;;;8.06;91.26
75543;BME280;64129;53.508;10.476;2023-04-15T06:59:16;100461.50;;;8.16;91.18
75543;BME280;64129;53.508;10.476;2023-04-15T07:01:43;100459.72;;;8.16;90.99
75543;BME280;64129;53.508;10.476;2023-04-15T07:04:09;100464.78;;;8.28;90.68
75543;BME280;64129;53.508;10.476;2023-04-15T07:06:36;100464.09;;;8.19;90.90
75543;BME280;64129;53.508;10.476;2023-04-15T07:09:03;100462.63;;;8.02;92.10
75543;BME280;64129;53.508;10.476;2023-04-15T07:11:30;100471.75;;;8.32;91.17
75543;BME280;64129;53.508;10.476;2023-04-15T07:13:57;100470.13;;;8.25;91.23
75543;BME280;64129;53.508;10.476;2023-04-15T07:16:23;100463.19;;;8.20;91.35
75543;BME280;64129;53.508;10.476;2023-04-15T07:18:50;100468.94;;;8.44;91.77
75543;BME280;64129;53.508;10.476;2023-04-15T07:21:16;100470.78;;;8.41;91.00
75543;BME280;64129;53.508;10.476;2023-04-15T07:23:43;100462.34;;;8.64;90.55
75543;BME280;64129;53.508;10.476;2023-04-15T07:26:10;100469.66;;;8.53;91.21
75543;BME280;64129;53.508;10.476;2023-04-15T07:28:36;100480.03;;;8.62;90.27
75543;BME280;64129;53.508;10.476;2023-04-15T07:31:03;100479.25;;;8.58;90.83
75543;BME280;64129;53.508;10.476;2023-04-15T07:33:29;100487.09;;;8.63;90.45
75543;BME280;64129;53.508;10.476;2023-04-15T07:35:56;100481.63;;;8.72;90.06
75543;BME280;64129;53.508;10.476;2023-04-15T07:38:22;100484.00;;;8.86;90.95
75543;BME280;64129;53.508;10.476;2023-04-15T07:40:49;100490.44;;;8.72;89.49
75543;BME280;64129;53.508;10.476;2023-04-15T07:43:15;100490.22;;;8.83;89.27
75543;BME280;64129;53.508;10.476;2023-04-15T07:45:42;100493.56;;;8.91;89.25
75543;BME280;64129;53.508;10.476;2023-04-15T07:48:08;100492.97;;;8.79;88.95
75543;BME280;64129;53.508;10.476;2023-04-15T07:50:35;100493.78;;;8.82;89.16
75543;BME280;64129;53.508;10.476;2023-04-15T07:53:01;100500.72;;;8.88;89.61
75543;BME280;64129;53.508;10.476;2023-04-15T07:55:28;100503.41;;;8.86;89.40
75543;BME280;64129;53.508;10.476;2023-04-15T07:57:55;100501.28;;;9.03;88.84
75543;BME280;64129;53.508;10.476;2023-04-15T08:00:22;100499.66;;;8.96;89.34
75543;BME280;64129;53.508;10.476;2023-04-15T08:02:48;100501.47;;;8.94;88.82
75543;BME280;64129;53.508;10.476;2023-04-15T08:05:15;100502.25;;;8.98;88.75
75543;BME280;64129;53.508;10.476;2023-04-15T08:07:42;100500.41;;;9.01;87.78
75543;BME280;64129;53.508;10.476;2023-04-15T08:10:08;100511.16;;;8.95;88.66
75543;BME280;64129;53.508;10.476;2023-04-15T08:12:35;100515.41;;;9.04;88.61
75543;BME280;64129;53.508;10.476;2023-04-15T08:15:02;100514.56;;;9.00;88.88
75543;BME280;64129;53.508;10.476;2023-04-15T08:17:29;100520.41;;;9.18;88.78
75543;BME280;64129;53.508;10.476;2023-04-15T08:19:56;100523.69;;;9.29;87.90
75543;BME280;64129;53.508;10.476;2023-04-15T08:22:22;100528.97;;;9.29;88.07
75543;BME280;64129;53.508;10.476;2023-04-15T08:24:49;100526.75;;;9.11;88.42
75543;BME280;64129;53.508;10.476;2023-04-15T08:27:16;100537.19;;;9.17;88.55
75543;BME280;64129;53.508;10.476;2023-04-15T08:29:43;100530.56;;;9.37;88.33
75543;BME280;64129;53.508;10.476;2023-04-15T08:32:10;100534.19;;;8.90;88.55
75543;BME280;64129;53.508;10.476;2023-04-15T08:34:37;100543.16;;;8.85;89.50
75543;BME280;64129;53.508;10.476;2023-04-15T08:37:03;100538.28;;;9.08;89.16
75543;BME280;64129;53.508;10.476;2023-04-15T08:39:30;100538.78;;;9.25;88.58
75543;BME280;64129;53.508;10.476;2023-04-15T08:42:01;100539.59;;;9.27;87.79
75543;BME280;64129;53.508;10.476;2023-04-15T08:44:29;100538.09;;;9.16;88.17
75543;BME280;64129;53.508;10.476;2023-04-15T08:47:00;100535.00;;;9.37;87.91
75543;BME280;64129;53.508;10.476;2023-04-15T08:49:27;100539.72;;;9.23;88.09
75543;BME280;64129;53.508;10.476;2023-04-15T08:51:57;100540.41;;;9.31;87.76
75543;BME280;64129;53.508;10.476;2023-04-15T08:54:24;100537.06;;;9.23;87.70
75543;BME280;64129;53.508;10.476;2023-04-15T08:56:52;100536.75;;;9.38;88.20
75543;BME280;64129;53.508;10.476;2023-04-15T08:59:20;100527.81;;;9.42;87.42
75543;BME280;64129;53.508;10.476;2023-04-15T09:01:48;100529.34;;;9.52;87.52
75543;BME280;64129;53.508;10.476;2023-04-15T09:04:16;100522.38;;;9.85;86.53
75543;BME280;64129;53.508;10.476;2023-04-15T09:06:43;100530.00;;;9.99;87.57
75543;BME280;64129;53.508;10.476;2023-04-15T09:09:11;100529.13;;;9.98;87.41
75543;BME280;64129;53.508;10.476;2023-04-15T09:11:38;100535.94;;;10.10;86.20
75543;BME280;64129;53.508;10.476;2023-04-15T09:14:04;100528.66;;;10.18;86.17
75543;BME280;64129;53.508;10.476;2023-04-15T09:16:48;100530.25;;;10.25;85.58
75543;BME280;64129;53.508;10.476;2023-04-15T09:19:22;100539.22;;;10.20;86.44
75543;BME280;64129;53.508;10.476;2023-04-15T09:21:51;100543.19;;;10.38;85.57
75543;BME280;64129;53.508;10.476;2023-04-15T09:24:19;100553.44;;;10.53;84.56
75543;BME280;64129;53.508;10.476;2023-04-15T09:26:46;100561.03;;;10.67;84.09
75543;BME280;64129;53.508;10.476;2023-04-15T09:29:12;100545.69;;;10.45;83.29
75543;BME280;64129;53.508;10.476;2023-04-15T09:31:40;100557.63;;;10.61;83.82
75543;BME280;64129;53.508;10.476;2023-04-15T09:34:07;100555.19;;;10.54;82.86
75543;BME280;64129;53.508;10.476;2023-04-15T09:36:51;100561.75;;;10.39;83.89
75543;BME280;64129;53.508;10.476;2023-04-15T09:39:17;100562.94;;;10.61;82.67
75543;BME280;64129;53.508;10.476;2023-04-15T09:41:44;100559.31;;;10.97;83.04
75543;BME280;64129;53.508;10.476;2023-04-15T09:44:26;100571.94;;;10.88;82.33
75543;BME280;64129;53.508;10.476;2023-04-15T09:46:52;100575.34;;;10.93;82.26
75543;BME280;64129;53.508;10.476;2023-04-15T09:49:19;100574.91;;;11.09;82.35
75543;BME280;64129;53.508;10.476;2023-04-15T09:51:46;100576.03;;;11.00;81.78
75543;BME280;64129;53.508;10.476;2023-04-15T09:54:20;100579.00;;;11.51;81.22
75543;BME280;64129;53.508;10.476;2023-04-15T09:56:46;100575.13;;;11.32;81.07
75543;BME280;64129;53.508;10.476;2023-04-15T09:59:13;100570.81;;;11.28;80.73
75543;BME280;64129;53.508;10.476;2023-04-15T10:01:41;100580.41;;;11.63;80.18
75543;BME280;64129;53.508;10.476;2023-04-15T10:04:08;100578.84;;;12.13;78.90
75543;BME280;64129;53.508;10.476;2023-04-15T10:06:36;100572.59;;;12.41;79.41
75543;BME280;64129;53.508;10.476;2023-04-15T10:09:02;100586.22;;;12.05;78.62
75543;BME280;64129;53.508;10.476;2023-04-15T10:11:30;100584.38;;;12.07;77.48
75543;BME280;64129;53.508;10.476;2023-04-15T10:13:58;100580.78;;;12.08;78.00
75543;BME280;64129;53.508;10.476;2023-04-15T10:16:26;100591.44;;;12.08;77.81
75543;BME280;64129;53.508;10.476;2023-04-15T10:18:57;100596.22;;;11.68;78.73
75543;BME280;64129;53.508;10.476;2023-04-15T10:21:27;100595.13;;;12.04;77.89
75543;BME280;64129;53.508;10.476;2023-04-15T10:23:53;100597.78;;;11.75;77.94
75543;BME280;64129;53.508;10.476;2023-04-15T10:26:20;100598.59;;;11.78;78.27
75543;BME280;64129;53.508;10.476;2023-04-15T10:28:47;100598.53;;;12.08;78.51
75543;BME280;64129;53.508;10.476;2023-04-15T10:31:14;100602.47;;;12.24;78.02
75543;BME280;64129;53.508;10.476;2023-04-15T10:33:41;100607.13;;;12.44;79.03
75543;BME280;64129;53.508;10.476;2023-04-15T10:36:09;100593.09;;;12.65;76.70
75543;BME280;64129;53.508;10.476;2023-04-15T10:38:38;100593.69;;;12.47;76.25
75543;BME280;64129;53.508;10.476;2023-04-15T10:41:20;100595.16;;;13.07;75.68
75543;BME280;64129;53.508;10.476;2023-04-15T10:43:56;100596.09;;;13.31;73.79
75543;BME280;64129;53.508;10.476;2023-04-15T10:46:43;100593.03;;;13.41;74.07
75543;BME280;64129;53.508;10.476;2023-04-15T10:51:39;100592.56;;;13.30;74.14
75543;BME280;64129;53.508;10.476;2023-04-15T10:54:32;100592.38;;;13.35;73.76
75543;BME280;64129;53.508;10.476;2023-04-15T11:02:43;100600.59;;;13.76;72.28
75543;BME280;64129;53.508;10.476;2023-04-15T11:05:10;100597.81;;;13.57;71.85
75543;BME280;64129;53.508;10.476;2023-04-15T11:12:39;100604.25;;;14.40;69.44
75543;BME280;64129;53.508;10.476;2023-04-15T11:15:31;100608.63;;;14.43;69.17
75543;BME280;64129;53.508;10.476;2023-04-15T11:18:08;100614.94;;;14.40;68.90
75543;BME280;64129;53.508;10.476;2023-04-15T11:20:36;100615.31;;;14.31;70.18
75543;BME280;64129;53.508;10.476;2023-04-15T11:23:03;100619.53;;;13.93;70.97
75543;BME280;64129;53.508;10.476;2023-04-15T11:25:32;100618.78;;;13.89;71.03
75543;BME280;64129;53.508;10.476;2023-04-15T11:28:00;100623.19;;;13.67;70.58
75543;BME280;64129;53.508;10.476;2023-04-15T11:30:29;100623.34;;;13.86;70.12
75543;BME280;64129;53.508;10.476;2023-04-15T11:32:59;100623.75;;;13.52;71.54
75543;BME280;64129;53.508;10.476;2023-04-15T11:35:27;100625.38;;;13.79;70.57
75543;BME280;64129;53.508;10.476;2023-04-15T11:37:53;100618.41;;;13.98;70.13
75543;BME280;64129;53.508;10.476;2023-04-15T11:40:22;100626.59;;;14.16;69.36
75543;BME280;64129;53.508;10.476;2023-04-15T11:43:12;100628.00;;;14.26;70.44
75543;BME280;64129;53.508;10.476;2023-04-15T11:45:59;100622.63;;;13.59;68.99
75543;BME280;64129;53.508;10.476;2023-04-15T11:48:28;100626.13;;;14.28;70.45
75543;BME280;64129;53.508;10.476;2023-04-15T11:50:56;100629.31;;;14.80;68.38
75543;BME280;64129;53.508;10.476;2023-04-15T11:53:24;100634.34;;;14.45;68.01
75543;BME280;64129;53.508;10.476;2023-04-15T11:56:00;100632.28;;;14.94;68.31
75543;BME280;64129;53.508;10.476;2023-04-15T11:58:28;100633.72;;;14.60;68.21
75543;BME280;64129;53.508;10.476;2023-04-15T12:00:59;100630.94;;;14.84;67.29
75543;BME280;64129;53.508;10.476;2023-04-15T12:03:32;100632.72;;;14.63;66.29
75543;BME280;64129;53.508;10.476;2023-04-15T12:06:20;100644.13;;;14.01;67.79
75543;BME280;64129;53.508;10.476;2023-04-15T12:11:47;100651.69;;;14.12;68.83
75543;BME280;64129;53.508;10.476;2023-04-15T12:16:45;100658.97;;;13.38;69.78
75543;BME280;64129;53.508;10.476;2023-04-15T12:19:14;100666.13;;;13.61;69.60
75543;BME280;64129;53.508;10.476;2023-04-15T12:21:44;100660.25;;;13.51;69.04
75543;BME280;64129;53.508;10.476;2023-04-15T12:24:12;100656.69;;;13.27;70.20
75543;BME280;64129;53.508;10.476;2023-04-15T12:26:47;100667.25;;;13.30;70.04
75543;BME280;64129;53.508;10.476;2023-04-15T12:29:15;100662.47;;;13.63;69.43
75543;BME280;64129;53.508;10.476;2023-04-15T12:31:49;100667.53;;;13.71;68.75
75543;BME280;64129;53.508;10.476;2023-04-15T12:34:31;100671.41;;;13.86;68.91
75543;BME280;64129;53.508;10.476;2023-04-15T12:37:00;100673.06;;;13.90;67.98
75543;BME280;64129;53.508;10.476;2023-04-15T12:39:29;100670.81;;;14.24;68.18
75543;BME280;64129;53.508;10.476;2023-04-15T12:41:57;100674.50;;;14.44;69.10
75543;BME280;64129;53.508;10.476;2023-04-15T12:44:24;100666.28;;;14.48;68.83
75543;BME280;64129;53.508;10.476;2023-04-15T12:46:51;100675.84;;;14.32;67.04
75543;BME280;64129;53.508;10.476;2023-04-15T12:49:22;100675.84;;;14.32;67.58
75543;BME280;64129;53.508;10.476;2023-04-15T12:51:50;100685.38;;;14.16;67.41
75543;BME280;64129;53.508;10.476;2023-04-15T12:54:17;100682.38;;;14.01;66.89
75543;BME280;64129;53.508;10.476;2023-04-15T12:56:44;100686.25;;;14.16;67.66
75543;BME280;64129;53.508;10.476;2023-04-15T12:59:12;100682.91;;;14.33;68.01
75543;BME280;64129;53.508;10.476;2023-04-15T13:01:39;100694.50;;;14.10;67.19
75543;BME280;64129;53.508;10.476;2023-04-15T13:04:06;100688.81;;;14.41;65.74
75543;BME280;64129;53.508;10.476;2023-04-15T13:06:33;100697.47;;;13.79;66.17
75543;BME280;64129;53.508;10.476;2023-04-15T13:08:59;100695.59;;;14.28;67.18
75543;BME280;64129;53.508;10.476;2023-04-15T13:11:27;100701.88;;;14.03;66.57